sensor_id;sensor_type;location;lat;lon;timestamp;P1;durP1;ratioP1;P2;durP2;ratioP2
2320;SDS011;15376;48.540;9.268;2023-05-16T00:01:42;16.17;;;14.50;;
2320;SDS011;15376;48.540;9.268;2023-05-16T00:04:07;16.27;;;14.67;;
2320;SDS011;15376;48.540;9.268;2023-05-16T00:06:32;16.67;;;15.07;;
2320;SDS011;15376;48.540;9.268;2023-05-16T00:08:59;15.53;;;14.03;;
2320;SDS011;15376;48.540;9.268;2023-05-16T00:11:25;14.70;;;13.20;;
2320;SDS011;15376;48.540;9.268;2023-05-16T00:13:50;14.60;;;13.20;;
2320;SDS011;15376;48.540;9.268;2023-05-16T00:16:16;14.33;;;12.87;;
2320;SDS011;15376;48.540;9.268;2023-05-16T00:18:41;15.30;;;13.20;;
2320;SDS011;15376;48.540;9.268;2023-05-16T00:21:09;16.80;;;12.67;;
2320;SDS011;15376;48.540;9.268;2023-05-16T00:23:35;16.40;;;13.00;;
2320;SDS011;15376;48.540;9.268;2023-05-16T00:26:00;13.73;;;12.43;;
2320;SDS011;15376;48.540;9.268;2023-05-16T00:28:25;12.07;;;10.97;;
2320;SDS011;15376;48.540;9.268;2023-05-16T00:30:51;14.17;;;12.67;;
2320;SDS011;15376;48.540;9.268;2023-05-16T00:33:16;14.33;;;11.43;;
2320;SDS011;15376;48.540;9.268;2023-05-16T00:35:43;12.57;;;11.27;;
2320;SDS011;15376;48.540;9.268;2023-05-16T00:38:08;12.63;;;11.33;;
2320;SDS011;15376;48.540;9.268;2023-05-16T00:40:34;12.23;;;11.03;;
2320;SDS011;15376;48.540;9.268;2023-05-16T00:42:59;13.00;;;11.80;;
2320;SDS011;15376;48.540;9.268;2023-05-16T00:45:25;13.20;;;11.90;;
2320;SDS011;15376;48.540;9.268;2023-05-16T00:47:50;12.77;;;11.57;;
2320;SDS011;15376;48.540;9.268;2023-05-16T00:50:16;12.73;;;11.13;;
2320;SDS011;15376;48.540;9.268;2023-05-16T00:52:42;13.27;;;11.93;;
2320;SDS011;15376;48.540;9.268;2023-05-16T00:55:08;14.60;;;13.10;;
2320;SDS011;15376;48.540;9.268;2023-05-16T00:57:35;12.33;;;11.23;;
2320;SDS011;15376;48.540;9.268;2023-05-16T01:00:02;12.87;;;11.47;;
2320;SDS011;15376;48.540;9.268;2023-05-16T01:02:29;13.83;;;12.40;;
2320;SDS011;15376;48.540;9.268;2023-05-16T01:04:55;14.47;;;12.53;;
2320;SDS011;15376;48.540;9.268;2023-05-16T01:07:20;12.10;;;10.90;;
2320;SDS011;15376;48.540;9.268;2023-05-16T01:09:46;14.00;;;11.63;;
2320;SDS011;15376;48.540;9.268;2023-05-16T01:15:06;14.30;;;12.80;;
2320;SDS011;15376;48.540;9.268;2023-05-16T01:20:21;13.60;;;12.03;;
2320;SDS011;15376;48.540;9.268;2023-05-16T01:23:10;14.20;;;12.70;;
2320;SDS011;15376;48.540;9.268;2023-05-16T01:26:06;13.70;;;12.30;;
2320;SDS011;15376;48.540;9.268;2023-05-16T01:28:51;13.87;;;12.17;;
2320;SDS011;15376;48.540;9.268;2023-05-16T01:31:18;14.00;;;12.67;;
2320;SDS011;15376;48.540;9.268;2023-05-16T01:33:44;13.83;;;12.33;;
2320;SDS011;15376;48.540;9.268;2023-05-16T01:36:11;14.67;;;12.47;;
2320;SDS011;15376;48.540;9.268;2023-05-16T01:44:40;16.10;;;12.97;;
2320;SDS011;15376;48.540;9.268;2023-05-16T01:47:10;13.40;;;12.10;;
2320;SDS011;15376;48.540;9.268;2023-05-16T01:52:19;14.20;;;12.40;;
2320;SDS011;15376;48.540;9.268;2023-05-16T01:54:52;15.70;;;12.10;;
2320;SDS011;15376;48.540;9.268;2023-05-16T01:57:23;13.57;;;12.20;;
2320;SDS011;15376;48.540;9.268;2023-05-16T01:59:50;13.90;;;12.60;;
2320;SDS011;15376;48.540;9.268;2023-05-16T02:02:19;12.60;;;11.40;;
2320;SDS011;15376;48.540;9.268;2023-05-16T02:04:44;13.50;;;12.20;;
2320;SDS011;15376;48.540;9.268;2023-05-16T02:07:10;12.70;;;11.50;;
2320;SDS011;15376;48.540;9.268;2023-05-16T02:09:38;11.00;;;10.00;;
2320;SDS011;15376;48.540;9.268;2023-05-16T02:12:04;13.90;;;12.33;;
2320;SDS011;15376;48.540;9.268;2023-05-16T02:14:29;13.23;;;11.27;;
2320;SDS011;15376;48.540;9.268;2023-05-16T02:16:55;13.23;;;11.93;;
2320;SDS011;15376;48.540;9.268;2023-05-16T02:19:21;12.87;;;11.67;;
2320;SDS011;15376;48.540;9.268;2023-05-16T02:21:46;13.30;;;12.00;;
2320;SDS011;15376;48.540;9.268;2023-05-16T02:24:12;14.80;;;12.53;;
2320;SDS011;15376;48.540;9.268;2023-05-16T02:26:37;14.20;;;12.80;;
2320;SDS011;15376;48.540;9.268;2023-05-16T02:29:02;13.57;;;12.30;;
2320;SDS011;15376;48.540;9.268;2023-05-16T02:31:31;12.77;;;11.43;;
2320;SDS011;15376;48.540;9.268;2023-05-16T02:33:58;14.33;;;11.23;;
2320;SDS011;15376;48.540;9.268;2023-05-16T02:36:24;12.70;;;11.50;;
2320;SDS011;15376;48.540;9.268;2023-05-16T02:38:50;14.90;;;13.43;;
2320;SDS011;15376;48.540;9.268;2023-05-16T02:41:15;13.60;;;12.20;;
2320;SDS011;15376;48.540;9.268;2023-05-16T02:43:41;17.17;;;11.93;;
2320;SDS011;15376;48.540;9.268;2023-05-16T02:46:25;14.83;;;12.30;;
2320;SDS011;15376;48.540;9.268;2023-05-16T02:48:52;14.00;;;12.70;;
2320;SDS011;15376;48.540;9.268;2023-05-16T02:51:21;14.10;;;12.80;;
2320;SDS011;15376;48.540;9.268;2023-05-16T02:53:47;13.37;;;12.17;;
2320;SDS011;15376;48.540;9.268;2023-05-16T02:56:13;14.10;;;12.63;;
2320;SDS011;15376;48.540;9.268;2023-05-16T02:58:38;12.80;;;11.60;;
2320;SDS011;15376;48.540;9.268;2023-05-16T03:01:04;12.60;;;11.40;;
2320;SDS011;15376;48.540;9.268;2023-05-16T03:03:30;12.47;;;11.20;;
2320;SDS011;15376;48.540;9.268;2023-05-16T03:05:57;13.37;;;12.13;;
2320;SDS011;15376;48.540;9.268;2023-05-16T03:08:22;13.17;;;11.90;;
2320;SDS011;15376;48.540;9.268;2023-05-16T03:10:47;14.47;;;13.00;;
2320;SDS011;15376;48.540;9.268;2023-05-16T03:13:13;13.40;;;12.10;;
2320;SDS011;15376;48.540;9.268;2023-05-16T03:15:38;13.07;;;11.17;;
2320;SDS011;15376;48.540;9.268;2023-05-16T03:18:03;15.17;;;13.50;;
2320;SDS011;15376;48.540;9.268;2023-05-16T03:20:29;13.50;;;12.07;;
2320;SDS011;15376;48.540;9.268;2023-05-16T03:22:54;13.13;;;11.87;;
2320;SDS011;15376;48.540;9.268;2023-05-16T03:25:19;15.00;;;12.60;;
2320;SDS011;15376;48.540;9.268;2023-05-16T03:27:45;15.57;;;14.10;;
2320;SDS011;15376;48.540;9.268;2023-05-16T03:30:11;15.93;;;13.77;;
2320;SDS011;15376;48.540;9.268;2023-05-16T03:32:37;13.00;;;11.70;;
2320;SDS011;15376;48.540;9.268;2023-05-16T03:35:02;14.60;;;13.10;;
2320;SDS011;15376;48.540;9.268;2023-05-16T03:37:28;13.57;;;12.17;;
2320;SDS011;15376;48.540;9.268;2023-05-16T03:39:53;12.93;;;11.73;;
2320;SDS011;15376;48.540;9.268;2023-05-16T03:42:19;14.50;;;12.43;;
2320;SDS011;15376;48.540;9.268;2023-05-16T03:44:44;13.40;;;11.57;;
2320;SDS011;15376;48.540;9.268;2023-05-16T03:47:09;14.20;;;12.70;;
2320;SDS011;15376;48.540;9.268;2023-05-16T03:49:35;13.80;;;12.50;;
2320;SDS011;15376;48.540;9.268;2023-05-16T03:52:03;13.57;;;12.17;;
2320;SDS011;15376;48.540;9.268;2023-05-16T03:54:29;14.90;;;13.40;;
2320;SDS011;15376;48.540;9.268;2023-05-16T03:56:55;14.30;;;12.37;;
2320;SDS011;15376;48.540;9.268;2023-05-16T03:59:20;15.63;;;12.10;;
2320;SDS011;15376;48.540;9.268;2023-05-16T04:01:46;14.20;;;12.30;;
2320;SDS011;15376;48.540;9.268;2023-05-16T04:04:11;13.97;;;12.67;;
2320;SDS011;15376;48.540;9.268;2023-05-16T04:06:38;16.73;;;12.63;;
2320;SDS011;15376;48.540;9.268;2023-05-16T04:09:03;13.63;;;12.30;;
2320;SDS011;15376;48.540;9.268;2023-05-16T04:11:30;19.43;;;12.43;;
2320;SDS011;15376;48.540;9.268;2023-05-16T04:13:55;14.63;;;13.13;;
2320;SDS011;15376;48.540;9.268;2023-05-16T04:16:21;13.10;;;11.90;;
2320;SDS011;15376;48.540;9.268;2023-05-16T04:18:46;14.27;;;12.87;;
2320;SDS011;15376;48.540;9.268;2023-05-16T04:21:12;16.90;;;13.57;;
2320;SDS011;15376;48.540;9.268;2023-05-16T04:23:39;12.17;;;11.03;;
2320;SDS011;15376;48.540;9.268;2023-05-16T04:26:05;12.60;;;11.37;;
2320;SDS011;15376;48.540;9.268;2023-05-16T04:28:30;13.87;;;12.50;;
2320;SDS011;15376;48.540;9.268;2023-05-16T04:30:56;13.33;;;11.93;;
2320;SDS011;15376;48.540;9.268;2023-05-16T04:33:21;13.97;;;12.53;;
2320;SDS011;15376;48.540;9.268;2023-05-16T04:35:47;13.50;;;12.20;;
2320;SDS011;15376;48.540;9.268;2023-05-16T04:38:12;13.40;;;12.20;;
2320;SDS011;15376;48.540;9.268;2023-05-16T04:40:38;11.97;;;10.80;;
2320;SDS011;15376;48.540;9.268;2023-05-16T04:43:05;13.67;;;12.37;;
2320;SDS011;15376;48.540;9.268;2023-05-16T04:45:31;14.60;;;13.20;;
2320;SDS011;15376;48.540;9.268;2023-05-16T04:47:56;13.53;;;12.20;;
2320;SDS011;15376;48.540;9.268;2023-05-16T04:50:21;13.47;;;12.13;;
2320;SDS011;15376;48.540;9.268;2023-05-16T04:52:47;18.03;;;13.00;;
2320;SDS011;15376;48.540;9.268;2023-05-16T04:55:12;17.00;;;13.60;;
2320;SDS011;15376;48.540;9.268;2023-05-16T04:57:37;13.53;;;12.13;;
2320;SDS011;15376;48.540;9.268;2023-05-16T05:00:03;12.20;;;11.03;;
2320;SDS011;15376;48.540;9.268;2023-05-16T05:02:32;13.17;;;11.67;;
2320;SDS011;15376;48.540;9.268;2023-05-16T05:04:58;14.03;;;12.63;;
2320;SDS011;15376;48.540;9.268;2023-05-16T05:07:23;12.13;;;10.83;;
2320;SDS011;15376;48.540;9.268;2023-05-16T05:09:52;13.50;;;12.20;;
2320;SDS011;15376;48.540;9.268;2023-05-16T05:12:20;15.10;;;13.60;;
2320;SDS011;15376;48.540;9.268;2023-05-16T05:14:45;15.03;;;13.60;;
2320;SDS011;15376;48.540;9.268;2023-05-16T05:17:10;16.27;;;14.73;;
2320;SDS011;15376;48.540;9.268;2023-05-16T05:19:36;15.73;;;13.60;;
2320;SDS011;15376;48.540;9.268;2023-05-16T05:22:01;14.47;;;13.10;;
2320;SDS011;15376;48.540;9.268;2023-05-16T05:24:27;18.40;;;14.60;;
2320;SDS011;15376;48.540;9.268;2023-05-16T05:26:52;14.20;;;12.87;;
2320;SDS011;15376;48.540;9.268;2023-05-16T05:29:17;16.20;;;14.60;;
2320;SDS011;15376;48.540;9.268;2023-05-16T05:31:43;15.33;;;13.73;;
2320;SDS011;15376;48.540;9.268;2023-05-16T05:34:08;16.07;;;14.23;;
2320;SDS011;15376;48.540;9.268;2023-05-16T05:36:33;19.23;;;15.83;;
2320;SDS011;15376;48.540;9.268;2023-05-16T05:38:59;17.10;;;14.60;;
2320;SDS011;15376;48.540;9.268;2023-05-16T05:41:24;15.43;;;14.03;;
2320;SDS011;15376;48.540;9.268;2023-05-16T05:43:50;27.43;;;20.20;;
2320;SDS011;15376;48.540;9.268;2023-05-16T05:46:16;28.27;;;23.20;;
2320;SDS011;15376;48.540;9.268;2023-05-16T05:48:41;33.77;;;24.77;;
2320;SDS011;15376;48.540;9.268;2023-05-16T05:51:07;34.20;;;25.80;;
2320;SDS011;15376;48.540;9.268;2023-05-16T05:53:32;36.57;;;28.13;;
2320;SDS011;15376;48.540;9.268;2023-05-16T05:55:58;41.03;;;29.20;;
2320;SDS011;15376;48.540;9.268;2023-05-16T05:58:24;39.00;;;29.23;;
2320;SDS011;15376;48.540;9.268;2023-05-16T06:00:49;42.70;;;31.13;;
2320;SDS011;15376;48.540;9.268;2023-05-16T06:03:14;40.90;;;31.57;;
2320;SDS011;15376;48.540;9.268;2023-05-16T06:05:40;40.57;;;30.40;;
2320;SDS011;15376;48.540;9.268;2023-05-16T06:08:06;52.27;;;33.47;;
2320;SDS011;15376;48.540;9.268;2023-05-16T06:10:31;41.90;;;30.30;;
2320;SDS011;15376;48.540;9.268;2023-05-16T06:12:56;35.40;;;28.47;;
2320;SDS011;15376;48.540;9.268;2023-05-16T06:15:22;40.10;;;30.33;;
2320;SDS011;15376;48.540;9.268;2023-05-16T06:17:47;41.33;;;30.53;;
2320;SDS011;15376;48.540;9.268;2023-05-16T06:20:13;35.60;;;28.53;;
2320;SDS011;15376;48.540;9.268;2023-05-16T06:22:38;49.20;;;31.33;;
2320;SDS011;15376;48.540;9.268;2023-05-16T06:25:04;41.03;;;30.30;;
2320;SDS011;15376;48.540;9.268;2023-05-16T06:27:29;36.33;;;28.20;;
2320;SDS011;15376;48.540;9.268;2023-05-16T06:29:55;39.27;;;30.27;;
2320;SDS011;15376;48.540;9.268;2023-05-16T06:32:20;40.73;;;29.50;;
2320;SDS011;15376;48.540;9.268;2023-05-16T06:34:46;47.40;;;34.30;;
2320;SDS011;15376;48.540;9.268;2023-05-16T06:37:12;48.90;;;36.57;;
2320;SDS011;15376;48.540;9.268;2023-05-16T06:39:37;50.10;;;35.63;;
2320;SDS011;15376;48.540;9.268;2023-05-16T06:42:03;47.13;;;34.23;;
2320;SDS011;15376;48.540;9.268;2023-05-16T06:44:28;49.60;;;37.37;;
2320;SDS011;15376;48.540;9.268;2023-05-16T06:46:54;45.93;;;35.87;;
2320;SDS011;15376;48.540;9.268;2023-05-16T06:49:19;48.90;;;35.50;;
2320;SDS011;15376;48.540;9.268;2023-05-16T06:51:45;50.30;;;36.30;;
2320;SDS011;15376;48.540;9.268;2023-05-16T06:54:10;48.53;;;35.03;;
2320;SDS011;15376;48.540;9.268;2023-05-16T06:56:36;43.40;;;34.13;;
2320;SDS011;15376;48.540;9.268;2023-05-16T06:59:01;47.33;;;36.73;;
2320;SDS011;15376;48.540;9.268;2023-05-16T07:01:27;42.30;;;35.30;;
2320;SDS011;15376;48.540;9.268;2023-05-16T07:03:52;47.23;;;35.47;;
2320;SDS011;15376;48.540;9.268;2023-05-16T07:06:17;52.03;;;36.37;;
2320;SDS011;15376;48.540;9.268;2023-05-16T07:08:43;55.43;;;38.87;;
2320;SDS011;15376;48.540;9.268;2023-05-16T07:11:08;54.57;;;38.20;;
2320;SDS011;15376;48.540;9.268;2023-05-16T07:13:35;46.53;;;34.90;;
2320;SDS011;15376;48.540;9.268;2023-05-16T07:16:00;50.90;;;39.83;;
2320;SDS011;15376;48.540;9.268;2023-05-16T07:18:26;55.77;;;37.50;;
2320;SDS011;15376;48.540;9.268;2023-05-16T07:20:51;49.43;;;36.00;;
2320;SDS011;15376;48.540;9.268;2023-05-16T07:23:16;51.97;;;39.07;;
2320;SDS011;15376;48.540;9.268;2023-05-16T07:25:42;46.00;;;35.70;;
2320;SDS011;15376;48.540;9.268;2023-05-16T07:28:07;41.23;;;34.03;;
2320;SDS011;15376;48.540;9.268;2023-05-16T07:30:32;43.03;;;33.43;;
2320;SDS011;15376;48.540;9.268;2023-05-16T07:32:58;47.57;;;34.30;;
2320;SDS011;15376;48.540;9.268;2023-05-16T07:35:24;48.80;;;35.47;;
2320;SDS011;15376;48.540;9.268;2023-05-16T07:37:49;42.47;;;33.00;;
2320;SDS011;15376;48.540;9.268;2023-05-16T07:40:15;40.67;;;32.03;;
2320;SDS011;15376;48.540;9.268;2023-05-16T07:42:42;46.03;;;33.83;;
2320;SDS011;15376;48.540;9.268;2023-05-16T07:45:07;42.40;;;32.00;;
2320;SDS011;15376;48.540;9.268;2023-05-16T07:47:33;39.90;;;31.47;;
2320;SDS011;15376;48.540;9.268;2023-05-16T07:49:58;37.60;;;30.43;;
2320;SDS011;15376;48.540;9.268;2023-05-16T07:52:24;36.47;;;27.90;;
2320;SDS011;15376;48.540;9.268;2023-05-16T07:54:49;34.80;;;27.20;;
2320;SDS011;15376;48.540;9.268;2023-05-16T07:57:15;36.53;;;28.50;;
2320;SDS011;15376;48.540;9.268;2023-05-16T07:59:41;35.60;;;30.90;;
2320;SDS011;15376;48.540;9.268;2023-05-16T08:02:07;36.37;;;28.90;;
2320;SDS011;15376;48.540;9.268;2023-05-16T08:04:34;38.33;;;29.20;;
2320;SDS011;15376;48.540;9.268;2023-05-16T08:07:00;36.40;;;29.53;;
2320;SDS011;15376;48.540;9.268;2023-05-16T08:09:25;35.03;;;27.93;;
2320;SDS011;15376;48.540;9.268;2023-05-16T08:11:50;36.63;;;28.67;;
2320;SDS011;15376;48.540;9.268;2023-05-16T08:14:16;36.20;;;29.80;;
2320;SDS011;15376;48.540;9.268;2023-05-16T08:16:41;37.67;;;29.80;;
2320;SDS011;15376;48.540;9.268;2023-05-16T08:19:06;37.07;;;28.00;;
2320;SDS011;15376;48.540;9.268;2023-05-16T08:21:32;33.97;;;28.30;;
2320;SDS011;15376;48.540;9.268;2023-05-16T08:23:57;35.80;;;28.63;;
2320;SDS011;15376;48.540;9.268;2023-05-16T08:26:23;32.97;;;29.33;;
2320;SDS011;15376;48.540;9.268;2023-05-16T08:28:49;36.10;;;29.23;;
2320;SDS011;15376;48.540;9.268;2023-05-16T08:31:14;31.30;;;26.73;;
2320;SDS011;15376;48.540;9.268;2023-05-16T08:33:39;31.10;;;24.63;;
2320;SDS011;15376;48.540;9.268;2023-05-16T08:36:05;30.30;;;24.73;;
2320;SDS011;15376;48.540;9.268;2023-05-16T08:38:31;27.50;;;22.70;;
2320;SDS011;15376;48.540;9.268;2023-05-16T08:40:57;28.23;;;23.70;;
2320;SDS011;15376;48.540;9.268;2023-05-16T08:43:22;25.03;;;22.13;;
2320;SDS011;15376;48.540;9.268;2023-05-16T08:45:47;27.37;;;23.17;;
2320;SDS011;15376;48.540;9.268;2023-05-16T08:48:13;29.00;;;22.73;;
2320;SDS011;15376;48.540;9.268;2023-05-16T08:50:41;24.77;;;22.00;;
2320;SDS011;15376;48.540;9.268;2023-05-16T08:53:08;25.00;;;22.30;;
2320;SDS011;15376;48.540;9.268;2023-05-16T08:55:35;27.23;;;23.87;;
2320;SDS011;15376;48.540;9.268;2023-05-16T08:58:02;23.63;;;20.77;;
2320;SDS011;15376;48.540;9.268;2023-05-16T09:00:28;25.57;;;21.63;;
2320;SDS011;15376;48.540;9.268;2023-05-16T09:02:55;26.50;;;21.10;;
2320;SDS011;15376;48.540;9.268;2023-05-16T09:05:21;24.70;;;22.10;;
2320;SDS011;15376;48.540;9.268;2023-05-16T09:07:48;24.43;;;21.80;;
2320;SDS011;15376;48.540;9.268;2023-05-16T09:10:13;24.63;;;22.10;;
2320;SDS011;15376;48.540;9.268;2023-05-16T09:12:39;23.23;;;20.80;;
2320;SDS011;15376;48.540;9.268;2023-05-16T09:15:06;21.17;;;18.83;;
2320;SDS011;15376;48.540;9.268;2023-05-16T09:17:37;20.07;;;18.13;;
2320;SDS011;15376;48.540;9.268;2023-05-16T09:20:07;20.03;;;17.93;;
2320;SDS011;15376;48.540;9.268;2023-05-16T09:22:49;20.17;;;18.20;;
2320;SDS011;15376;48.540;9.268;2023-05-16T09:25:20;20.80;;;18.70;;
2320;SDS011;15376;48.540;9.268;2023-05-16T09:27:47;19.67;;;17.70;;
2320;SDS011;15376;48.540;9.268;2023-05-16T09:30:15;21.30;;;17.47;;
2320;SDS011;15376;48.540;9.268;2023-05-16T09:32:44;21.43;;;17.97;;
2320;SDS011;15376;48.540;9.268;2023-05-16T09:35:10;20.37;;;17.43;;
2320;SDS011;15376;48.540;9.268;2023-05-16T09:37:44;21.67;;;17.00;;
2320;SDS011;15376;48.540;9.268;2023-05-16T09:40:13;17.27;;;15.57;;
2320;SDS011;15376;48.540;9.268;2023-05-16T09:42:39;17.53;;;15.87;;
2320;SDS011;15376;48.540;9.268;2023-05-16T09:45:05;19.83;;;16.47;;
2320;SDS011;15376;48.540;9.268;2023-05-16T09:47:35;17.83;;;16.03;;
2320;SDS011;15376;48.540;9.268;2023-05-16T09:50:02;21.70;;;18.33;;
2320;SDS011;15376;48.540;9.268;2023-05-16T09:52:28;19.63;;;17.50;;
2320;SDS011;15376;48.540;9.268;2023-05-16T09:54:53;21.03;;;18.27;;
2320;SDS011;15376;48.540;9.268;2023-05-16T09:57:19;27.80;;;25.00;;
2320;SDS011;15376;48.540;9.268;2023-05-16T09:59:46;30.40;;;25.33;;
2320;SDS011;15376;48.540;9.268;2023-05-16T10:02:11;43.60;;;36.30;;
2320;SDS011;15376;48.540;9.268;2023-05-16T10:04:37;35.63;;;31.83;;
2320;SDS011;15376;48.540;9.268;2023-05-16T10:07:03;24.30;;;21.00;;
2320;SDS011;15376;48.540;9.268;2023-05-16T10:09:32;24.87;;;21.93;;
2320;SDS011;15376;48.540;9.268;2023-05-16T10:12:02;29.40;;;19.60;;
2320;SDS011;15376;48.540;9.268;2023-05-16T10:14:34;23.87;;;21.37;;
2320;SDS011;15376;48.540;9.268;2023-05-16T10:17:01;25.60;;;22.13;;
2320;SDS011;15376;48.540;9.268;2023-05-16T10:19:28;24.23;;;21.67;;
2320;SDS011;15376;48.540;9.268;2023-05-16T10:21:57;25.50;;;21.60;;
2320;SDS011;15376;48.540;9.268;2023-05-16T10:24:27;24.33;;;21.37;;
2320;SDS011;15376;48.540;9.268;2023-05-16T10:27:00;24.10;;;21.10;;
2320;SDS011;15376;48.540;9.268;2023-05-16T10:29:27;31.53;;;25.30;;
2320;SDS011;15376;48.540;9.268;2023-05-16T10:31:53;24.43;;;21.43;;
2320;SDS011;15376;48.540;9.268;2023-05-16T10:34:18;30.30;;;21.87;;
2320;SDS011;15376;48.540;9.268;2023-05-16T10:36:44;24.00;;;21.50;;
2320;SDS011;15376;48.540;9.268;2023-05-16T10:39:11;27.17;;;21.93;;
2320;SDS011;15376;48.540;9.268;2023-05-16T10:41:37;24.70;;;21.07;;
2320;SDS011;15376;48.540;9.268;2023-05-16T10:44:07;26.00;;;21.77;;
2320;SDS011;15376;48.540;9.268;2023-05-16T10:46:38;26.23;;;22.90;;
2320;SDS011;15376;48.540;9.268;2023-05-16T10:49:19;29.03;;;23.53;;
2320;SDS011;15376;48.540;9.268;2023-05-16T10:51:46;27.53;;;23.73;;
2320;SDS011;15376;48.540;9.268;2023-05-16T10:54:38;28.20;;;24.53;;
2320;SDS011;15376;48.540;9.268;2023-05-16T10:57:08;27.90;;;23.47;;
2320;SDS011;15376;48.540;9.268;2023-05-16T10:59:43;30.57;;;24.07;;
2320;SDS011;15376;48.540;9.268;2023-05-16T11:02:28;27.93;;;23.43;;
2320;SDS011;15376;48.540;9.268;2023-05-16T11:05:03;27.93;;;23.77;;
2320;SDS011;15376;48.540;9.268;2023-05-16T11:07:34;29.57;;;23.37;;
2320;SDS011;15376;48.540;9.268;2023-05-16T11:12:35;28.00;;;23.50;;
2320;SDS011;15376;48.540;9.268;2023-05-16T11:15:01;29.47;;;23.40;;
2320;SDS011;15376;48.540;9.268;2023-05-16T11:17:45;30.30;;;24.53;;
2320;SDS011;15376;48.540;9.268;2023-05-16T11:22:51;30.17;;;24.63;;
2320;SDS011;15376;48.540;9.268;2023-05-16T11:25:56;28.77;;;23.67;;
2320;SDS011;15376;48.540;9.268;2023-05-16T11:28:25;33.40;;;24.97;;
2320;SDS011;15376;48.540;9.268;2023-05-16T11:30:52;32.77;;;25.67;;
2320;SDS011;15376;48.540;9.268;2023-05-16T11:33:22;32.17;;;25.80;;
2320;SDS011;15376;48.540;9.268;2023-05-16T11:36:04;29.43;;;25.20;;
2320;SDS011;15376;48.540;9.268;2023-05-16T11:38:31;31.07;;;23.53;;
2320;SDS011;15376;48.540;9.268;2023-05-16T11:41:00;48.30;;;29.30;;
2320;SDS011;15376;48.540;9.268;2023-05-16T11:43:39;28.00;;;24.07;;
2320;SDS011;15376;48.540;9.268;2023-05-16T11:46:06;32.30;;;26.33;;
2320;SDS011;15376;48.540;9.268;2023-05-16T11:48:35;28.93;;;22.60;;
2320;SDS011;15376;48.540;9.268;2023-05-16T11:51:01;29.30;;;23.43;;
2320;SDS011;15376;48.540;9.268;2023-05-16T11:53:27;24.83;;;21.40;;
2320;SDS011;15376;48.540;9.268;2023-05-16T11:55:52;28.87;;;25.57;;
2320;SDS011;15376;48.540;9.268;2023-05-16T11:58:18;28.57;;;22.47;;
2320;SDS011;15376;48.540;9.268;2023-05-16T12:00:50;30.43;;;26.47;;
2320;SDS011;15376;48.540;9.268;2023-05-16T12:03:16;26.33;;;21.63;;
2320;SDS011;15376;48.540;9.268;2023-05-16T12:05:52;27.10;;;22.17;;
2320;SDS011;15376;48.540;9.268;2023-05-16T12:08:19;26.10;;;21.73;;
2320;SDS011;15376;48.540;9.268;2023-05-16T12:10:54;23.67;;;20.43;;
2320;SDS011;15376;48.540;9.268;2023-05-16T12:13:20;27.00;;;23.13;;
2320;SDS011;15376;48.540;9.268;2023-05-16T12:15:47;31.83;;;26.23;;
2320;SDS011;15376;48.540;9.268;2023-05-16T12:18:13;27.57;;;21.67;;
2320;SDS011;15376;48.540;9.268;2023-05-16T12:20:40;23.97;;;20.57;;
2320;SDS011;15376;48.540;9.268;2023-05-16T12:23:10;23.40;;;19.73;;
2320;SDS011;15376;48.540;9.268;2023-05-16T12:25:36;22.27;;;18.60;;
2320;SDS011;15376;48.540;9.268;2023-05-16T12:28:07;21.53;;;16.90;;
2320;SDS011;15376;48.540;9.268;2023-05-16T12:30:34;21.20;;;16.70;;
2320;SDS011;15376;48.540;9.268;2023-05-16T12:35:29;26.30;;;14.00;;
2320;SDS011;15376;48.540;9.268;2023-05-16T12:38:03;16.73;;;13.87;;
2320;SDS011;15376;48.540;9.268;2023-05-16T12:40:29;15.17;;;13.67;;
2320;SDS011;15376;48.540;9.268;2023-05-16T12:42:55;17.20;;;13.60;;
2320;SDS011;15376;48.540;9.268;2023-05-16T12:45:21;19.77;;;14.70;;
2320;SDS011;15376;48.540;9.268;2023-05-16T12:47:47;17.37;;;15.57;;
2320;SDS011;15376;48.540;9.268;2023-05-16T12:50:13;20.07;;;16.40;;
2320;SDS011;15376;48.540;9.268;2023-05-16T12:52:49;17.53;;;14.83;;
2320;SDS011;15376;48.540;9.268;2023-05-16T12:55:16;17.37;;;15.47;;
2320;SDS011;15376;48.540;9.268;2023-05-16T12:57:42;21.00;;;15.30;;
2320;SDS011;15376;48.540;9.268;2023-05-16T13:00:10;20.17;;;16.83;;
2320;SDS011;15376;48.540;9.268;2023-05-16T13:02:36;19.67;;;15.90;;
2320;SDS011;15376;48.540;9.268;2023-05-16T13:05:02;21.63;;;16.80;;
2320;SDS011;15376;48.540;9.268;2023-05-16T13:07:28;18.63;;;15.40;;
2320;SDS011;15376;48.540;9.268;2023-05-16T13:09:54;18.43;;;15.53;;
2320;SDS011;15376;48.540;9.268;2023-05-16T13:12:19;20.97;;;17.53;;
2320;SDS011;15376;48.540;9.268;2023-05-16T13:14:46;19.00;;;17.00;;
2320;SDS011;15376;48.540;9.268;2023-05-16T13:17:11;20.90;;;16.20;;
2320;SDS011;15376;48.540;9.268;2023-05-16T13:19:37;17.23;;;15.07;;
2320;SDS011;15376;48.540;9.268;2023-05-16T13:22:02;18.90;;;14.93;;
2320;SDS011;15376;48.540;9.268;2023-05-16T13:24:28;20.43;;;17.00;;
2320;SDS011;15376;48.540;9.268;2023-05-16T13:26:53;18.73;;;16.73;;
2320;SDS011;15376;48.540;9.268;2023-05-16T13:29:18;19.37;;;15.57;;
2320;SDS011;15376;48.540;9.268;2023-05-16T13:31:44;18.73;;;15.30;;
2320;SDS011;15376;48.540;9.268;2023-05-16T13:34:09;18.73;;;14.57;;
2320;SDS011;15376;48.540;9.268;2023-05-16T13:36:34;19.37;;;15.13;;
2320;SDS011;15376;48.540;9.268;2023-05-16T13:39:00;18.03;;;15.40;;
2320;SDS011;15376;48.540;9.268;2023-05-16T13:41:26;18.63;;;13.97;;
2320;SDS011;15376;48.540;9.268;2023-05-16T13:43:51;14.53;;;13.00;;
2320;SDS011;15376;48.540;9.268;2023-05-16T13:46:16;12.87;;;11.47;;
2320;SDS011;15376;48.540;9.268;2023-05-16T13:48:42;15.97;;;11.80;;
2320;SDS011;15376;48.540;9.268;2023-05-16T13:51:07;13.10;;;11.80;;
2320;SDS011;15376;48.540;9.268;2023-05-16T13:53:34;12.53;;;10.13;;
2320;SDS011;15376;48.540;9.268;2023-05-16T13:56:00;13.53;;;11.00;;
2320;SDS011;15376;48.540;9.268;2023-05-16T13:58:25;11.20;;;10.17;;
2320;SDS011;15376;48.540;9.268;2023-05-16T14:00:51;11.63;;;9.90;;
2320;SDS011;15376;48.540;9.268;2023-05-16T14:03:16;10.20;;;9.00;;
2320;SDS011;15376;48.540;9.268;2023-05-16T14:05:41;9.17;;;8.33;;
2320;SDS011;15376;48.540;9.268;2023-05-16T14:08:07;8.70;;;8.00;;
2320;SDS011;15376;48.540;9.268;2023-05-16T14:10:32;9.50;;;8.70;;
2320;SDS011;15376;48.540;9.268;2023-05-16T14:12:58;10.20;;;9.17;;
2320;SDS011;15376;48.540;9.268;2023-05-16T14:15:23;9.43;;;8.63;;
2320;SDS011;15376;48.540;9.268;2023-05-16T14:17:48;9.10;;;8.23;;
2320;SDS011;15376;48.540;9.268;2023-05-16T14:20:16;9.20;;;8.27;;
2320;SDS011;15376;48.540;9.268;2023-05-16T14:22:41;10.50;;;9.60;;
2320;SDS011;15376;48.540;9.268;2023-05-16T14:25:07;9.93;;;8.90;;
2320;SDS011;15376;48.540;9.268;2023-05-16T14:27:32;11.83;;;8.57;;
2320;SDS011;15376;48.540;9.268;2023-05-16T14:29:58;7.70;;;7.10;;
2320;SDS011;15376;48.540;9.268;2023-05-16T14:32:23;8.30;;;7.50;;
2320;SDS011;15376;48.540;9.268;2023-05-16T14:34:49;9.50;;;7.60;;
2320;SDS011;15376;48.540;9.268;2023-05-16T14:37:14;9.10;;;7.03;;
2320;SDS011;15376;48.540;9.268;2023-05-16T14:39:40;6.90;;;6.27;;
2320;SDS011;15376;48.540;9.268;2023-05-16T14:42:06;7.90;;;7.20;;
2320;SDS011;15376;48.540;9.268;2023-05-16T14:44:32;8.00;;;7.20;;
2320;SDS011;15376;48.540;9.268;2023-05-16T14:46:57;10.30;;;9.40;;
2320;SDS011;15376;48.540;9.268;2023-05-16T14:49:22;6.70;;;6.03;;
2320;SDS011;15376;48.540;9.268;2023-05-16T14:51:48;8.93;;;7.70;;
2320;SDS011;15376;48.540;9.268;2023-05-16T14:54:14;7.70;;;7.00;;
2320;SDS011;15376;48.540;9.268;2023-05-16T14:56:41;11.03;;;8.00;;